Time;durP1;ratioP1;P1;durP2;ratioP2;P2;SDS_P1;SDS_P2;PMS_P1;PMS_P2;Temp;Humidity;BMP_temperature;BMP_pressure;BME280_temperature;BME280_humidity;BME280_pressure;Samples;Min_cycle;Max_cycle;Signal;HPM_P1;HPM_P2
2021/12/09 00:00:16;;;;;;;;;;;5.20;99.90;5.80;98586.00;;;;343698;28;82274;-94
2021/12/09 00:00:33;;;;;;;;;;;5.20;99.90;5.80;98581.00;;;;340120;28;96054;-95
2021/12/09 00:00:54;;;;;;;;;;;5.20;99.90;5.60;98574.00;;;;340571;28;83511;-93
2021/12/09 00:01:07;;;;;;;;;;;5.20;99.90;5.70;98581.00;;;;338786;28;97527;-93
2021/12/09 00:01:26;;;;;;;;;;;5.20;99.90;5.80;98591.00;;;;340609;28;83471;-93
2021/12/09 00:01:40;;;;;;;;;;;5.20;99.90;5.80;98585.00;;;;342335;28;96533;-93
2021/12/09 00:01:52;;;;;;;;;;;5.20;99.90;5.80;98580.00;;;;339449;28;82513;-93
2021/12/09 00:02:06;;;;;;;;;;;5.20;99.90;5.70;98577.00;;;;337482;28;96859;-94
2021/12/09 00:02:20;;;;;;;;;;;5.20;99.90;5.70;98579.00;;;;340900;28;83284;-93
2021/12/09 00:02:33;;;;;;;;;;;5.20;99.90;5.70;98581.00;;;;340197;28;95390;-94
2021/12/09 00:02:45;;;;;;;;;;;5.20;99.90;5.70;98590.00;;;;339395;28;84131;-95
2021/12/09 00:02:57;;;;;;;;;;;5.20;99.90;5.80;98582.00;;;;340042;28;96455;-93
2021/12/09 00:03:12;;;;;;;;;;;5.20;99.90;5.80;98577.00;;;;339314;28;82739;-93
2021/12/09 00:03:24;;;;;;;;;;;5.20;99.90;5.80;98579.00;;;;339927;28;96164;-94
2021/12/09 00:03:39;;;;;;;;;;;5.20;99.90;5.80;98579.00;;;;342008;28;82340;-94
2021/12/09 00:03:58;;;;;;;;;;;5.20;99.90;5.80;98582.00;;;;339542;28;92971;-93
2021/12/09 00:04:12;;;;;;;;;;;5.20;99.90;5.80;98587.00;;;;341844;28;83473;-94
2021/12/09 00:04:29;;;;;;;;;;;5.20;99.90;5.80;98587.00;;;;342663;28;96907;-94
2021/12/09 00:04:41;;;;;;;;;;;5.20;99.90;5.80;98586.00;;;;341960;28;83424;-93
2021/12/09 00:04:58;;;;;;;;;;;5.20;99.90;5.80;98584.00;;;;340949;28;95530;-93
2021/12/09 00:05:12;;;;;;;;;;;5.20;99.90;5.80;98585.00;;;;342079;28;82579;-93
2021/12/09 00:05:24;;;;;;;;;;;5.20;99.90;5.80;98579.00;;;;340025;28;95262;-94
2021/12/09 00:05:36;;;;;;;;;;;5.20;99.90;5.90;98588.00;;;;342028;28;83442;-93
2021/12/09 00:05:48;;;;;;;;;;;5.20;99.90;5.80;98577.00;;;;341220;28;94965;-93
2021/12/09 00:06:00;;;;;;;;;;;5.20;99.90;5.80;98582.00;;;;342066;28;82621;-94
2021/12/09 00:06:12;;;;;;;;;;;5.20;99.90;5.70;98583.00;;;;339793;28;96539;-94
2021/12/09 00:06:27;;;;;;;;;;;5.20;99.90;5.70;98579.00;;;;342144;28;83145;-95
2021/12/09 00:06:41;;;;;;;;;;;5.20;99.90;5.80;98576.00;;;;341163;28;95722;-94
2021/12/09 00:06:54;;;;;;;;;;;5.20;99.90;5.70;98581.00;;;;339863;28;83273;-94
2021/12/09 00:07:06;;;;;;;;;;;5.20;99.90;5.60;98587.00;;;;339803;28;95322;-93
2021/12/09 00:07:18;;;;;;;;;;;5.20;99.90;5.60;98578.00;;;;339389;28;83563;-93
2021/12/09 00:07:30;;;;;;;;;;;5.20;99.90;5.60;98581.00;;;;339971;28;96528;-93
2021/12/09 00:07:42;;;;;;;;;;;5.20;99.90;5.70;98586.00;;;;340542;28;82418;-93
2021/12/09 00:07:54;;;;;;;;;;;5.20;99.90;5.80;98582.00;;;;341232;28;97361;-93
2021/12/09 00:08:06;;;;;;;;;;;5.20;99.90;5.80;98590.00;;;;342060;28;83437;-94
2021/12/09 00:08:18;;;;;;;;;;;5.20;99.90;5.70;98588.00;;;;339870;28;96729;-93
2021/12/09 00:08:30;;;;;;;;;;;5.20;99.90;5.60;98580.00;;;;342068;28;83312;-94
2021/12/09 00:08:42;;;;;;;;;;;5.20;99.90;5.70;98589.00;;;;342364;28;96693;-95
2021/12/09 00:08:58;;;;;;;;;;;5.10;99.90;5.70;98583.00;;;;342014;28;83526;-93
2021/12/09 00:09:12;;;;;;;;;;;5.20;99.90;5.70;98586.00;;;;341222;28;96697;-93
2021/12/09 00:09:24;;;;;;;;;;;5.20;99.90;5.60;98580.00;;;;340559;28;83400;-94
2021/12/09 00:09:36;;;;;;;;;;;5.20;99.90;5.60;98586.00;;;;339736;28;95303;-94
2021/12/09 00:09:49;;;;;;;;;;;5.20;99.90;5.70;98588.00;;;;340606;28;82534;-94
2021/12/09 00:10:05;;;;;;;;;;;5.20;99.90;5.60;98587.00;;;;339893;28;97921;-93
2021/12/09 00:10:17;;;;;;;;;;;5.20;99.90;5.60;98590.00;;;;342038;28;83476;-92
2021/12/09 00:10:29;;;;;;;;;;;5.10;99.90;5.60;98582.00;;;;338627;28;96672;-95
2021/12/09 00:10:41;;;;;;;;;;;5.10;99.90;5.70;98581.00;;;;341513;28;83351;-94
2021/12/09 00:10:54;;;;;;;;;;;5.10;99.90;5.60;98590.00;;;;338455;28;95316;-93
2021/12/09 00:11:07;;;;;;;;;;;5.10;99.90;5.60;98585.00;;;;339523;28;82603;-95
2021/12/09 00:11:19;;;;;;;;;;;5.10;99.90;5.60;98595.00;;;;337170;28;95796;-94
2021/12/09 00:11:34;;;;;;;;;;;5.10;99.90;5.50;98587.00;;;;340572;28;82503;-94
2021/12/09 00:11:50;;;;;;;;;;;5.10;99.90;5.60;98583.00;;;;338631;28;95421;-93
2021/12/09 00:12:02;;;;;;;;;;;5.10;99.90;5.60;98588.00;;;;341936;28;83493;-94
2021/12/09 00:12:14;;;;;;;;;;;5.10;99.90;5.50;98588.00;;;;341236;28;97569;-94
2021/12/09 00:12:27;;;;;;;;;;;5.10;99.90;5.50;98584.00;;;;340721;28;82525;-94
2021/12/09 00:12:39;;;;;;;;;;;5.10;99.90;5.60;98584.00;;;;341026;28;96879;-93
2021/12/09 00:12:51;;;;;;;;;;;5.10;99.90;5.60;98580.00;;;;339285;28;83503;-94
2021/12/09 00:13:03;;;;;;;;;;;5.10;99.90;5.60;98579.00;;;;338563;28;95386;-94
2021/12/09 00:13:15;;;;;;;;;;;5.00;99.90;5.50;98590.00;;;;339209;28;83297;-93
2021/12/09 00:13:27;;;;;;;;;;;5.00;99.90;5.50;98573.00;;;;342594;28;95501;-94
2021/12/09 00:13:39;;;;;;;;;;;5.00;99.90;5.60;98586.00;;;;340379;28;83339;-93
2021/12/09 00:13:51;;;;;;;;;;;5.00;99.90;5.60;98584.00;;;;339616;28;94891;-94
2021/12/09 00:14:03;;;;;;;;;;;5.10;99.90;5.50;98587.00;;;;340705;28;83271;-94
2021/12/09 00:14:20;;;;;;;;;;;5.00;99.90;5.50;98589.00;;;;339695;28;97570;-93
2021/12/09 00:14:33;;;;;;;;;;;5.00;99.90;5.50;98591.00;;;;342004;28;82556;-94
2021/12/09 00:14:44;;;;;;;;;;;5.00;99.90;5.50;98588.00;;;;339940;28;95458;-93
2021/12/09 00:14:59;;;;;;;;;;;5.00;99.90;5.50;98597.00;;;;340671;28;83308;-93
2021/12/09 00:15:11;;;;;;;;;;;5.00;99.90;5.50;98593.00;;;;341345;28;96338;-94
2021/12/09 00:15:23;;;;;;;;;;;5.00;99.90;5.50;98591.00;;;;340635;28;83343;-94
2021/12/09 00:15:35;;;;;;;;;;;5.00;99.90;5.60;98583.00;;;;340898;28;96768;-95
2021/12/09 00:15:46;;;;;;;;;;;5.00;99.90;5.50;98585.00;;;;340473;28;82447;-95
2021/12/09 00:15:58;;;;;;;;;;;5.00;99.90;5.60;98590.00;;;;338612;28;95323;-94
2021/12/09 00:16:10;;;;;;;;;;;5.00;99.90;5.60;98594.00;;;;339749;28;82627;-94
2021/12/09 00:16:22;;;;;;;;;;;5.00;99.90;5.60;98595.00;;;;338333;28;96762;-93
2021/12/09 00:16:34;;;;;;;;;;;5.00;99.90;5.50;98593.00;;;;340863;28;83166;-93
2021/12/09 00:16:45;;;;;;;;;;;5.00;99.90;5.50;98598.00;;;;338557;28;96126;-94
2021/12/09 00:17:00;;;;;;;;;;;5.00;99.90;5.50;98591.00;;;;341911;28;83453;-94
2021/12/09 00:17:11;;;;;;;;;;;4.90;99.90;5.50;98583.00;;;;341426;28;97134;-95
2021/12/09 00:17:23;;;;;;;;;;;4.90;99.90;5.50;98589.00;;;;342164;28;83364;-93
2021/12/09 00:17:35;;;;;;;;;;;4.90;99.90;5.50;98586.00;;;;339998;28;97125;-93
2021/12/09 00:17:47;;;;;;;;;;;4.90;99.90;5.50;98595.00;;;;340812;28;82315;-93
2021/12/09 00:17:59;;;;;;;;;;;4.90;99.90;5.40;98585.00;;;;339822;28;95650;-92
2021/12/09 00:18:10;;;;;;;;;;;4.90;99.90;5.50;98590.00;;;;342070;28;83549;-94
2021/12/09 00:18:23;;;;;;;;;;;4.90;99.90;5.60;98580.00;;;;340030;28;97461;-93
2021/12/09 00:18:34;;;;;;;;;;;4.90;99.90;5.50;98590.00;;;;341027;28;82364;-94
2021/12/09 00:18:47;;;;;;;;;;;4.90;99.90;5.50;98578.00;;;;340621;28;95637;-94
2021/12/09 00:19:00;;;;;;;;;;;4.90;99.90;5.50;98587.00;;;;339660;28;82570;-93
2021/12/09 00:19:12;;;;;;;;;;;4.90;99.90;5.50;98583.00;;;;340173;28;93131;-93
2021/12/09 00:19:24;;;;;;;;;;;4.90;99.90;5.50;98586.00;;;;342396;28;82306;-92
2021/12/09 00:19:36;;;;;;;;;;;5.00;99.90;5.50;98581.00;;;;341198;28;96514;-93
2021/12/09 00:19:48;;;;;;;;;;;4.90;99.90;5.40;98577.00;;;;340790;28;82455;-94
2021/12/09 00:19:59;;;;;;;;;;;4.90;99.90;5.50;98584.00;;;;338647;28;96335;-93
2021/12/09 00:20:13;;;;;;;;;;;4.90;99.90;5.50;98583.00;;;;340521;28;83470;-94
2021/12/09 00:20:25;;;;;;;;;;;4.90;99.90;5.50;98581.00;;;;338394;28;96512;-94
2021/12/09 00:20:36;;;;;;;;;;;4.90;99.90;5.40;98587.00;;;;342007;28;83334;-94
2021/12/09 00:20:48;;;;;;;;;;;4.90;99.90;5.40;98581.00;;;;338665;28;94801;-93
2021/12/09 00:21:00;;;;;;;;;;;4.90;99.90;5.40;98582.00;;;;339425;28;82411;-94
2021/12/09 00:21:12;;;;;;;;;;;4.90;99.90;5.50;98585.00;;;;341370;28;95772;-94
2021/12/09 00:21:24;;;;;;;;;;;4.90;99.90;5.50;98580.00;;;;340798;28;82548;-92
2021/12/09 00:21:36;;;;;;;;;;;4.90;99.90;5.50;98570.00;;;;339969;28;96407;-93
2021/12/09 00:21:47;;;;;;;;;;;4.90;99.90;5.40;98583.00;;;;342193;28;83418;-93
2021/12/09 00:21:59;;;;;;;;;;;4.90;99.90;5.50;98580.00;;;;340099;28;96555;-94
2021/12/09 00:22:12;;;;;;;;;;;4.90;99.90;5.50;98585.00;;;;341375;28;82570;-93
2021/12/09 00:22:25;;;;;;;;;;;4.90;99.90;5.50;98581.00;;;;340972;28;96475;-93
2021/12/09 00:22:37;;;;;;;;;;;4.90;99.90;5.50;98589.00;;;;340273;28;83391;-95
2021/12/09 00:22:49;;;;;;;;;;;4.90;99.90;5.50;98581.00;;;;339814;28;96791;-93
2021/12/09 00:23:00;;;;;;;;;;;4.90;99.90;5.50;98578.00;;;;340416;28;83512;-93
2021/12/09 00:23:12;;;;;;;;;;;4.90;99.90;5.50;98584.00;;;;339926;28;95484;-94
2021/12/09 00:23:24;;;;;;;;;;;4.90;99.90;5.40;98586.00;;;;342086;28;83282;-93
2021/12/09 00:23:36;;;;;;;;;;;4.90;99.90;5.40;98589.00;;;;339966;28;95124;-93
2021/12/09 00:23:48;;;;;;;;;;;4.90;99.90;5.40;98591.00;;;;342053;28;83466;-92
2021/12/09 00:24:00;;;;;;;;;;;4.90;99.90;5.40;98597.00;;;;338501;28;96515;-93
2021/12/09 00:24:11;;;;;;;;;;;4.90;99.90;5.40;98583.00;;;;341997;28;82420;-93
2021/12/09 00:24:23;;;;;;;;;;;4.90;99.90;5.40;98584.00;;;;339785;28;98064;-94
2021/12/09 00:24:35;;;;;;;;;;;4.90;99.90;5.40;98586.00;;;;340466;28;83465;-94
2021/12/09 00:24:47;;;;;;;;;;;4.90;99.90;5.40;98589.00;;;;339788;28;96393;-94
2021/12/09 00:24:59;;;;;;;;;;;4.90;99.90;5.50;98591.00;;;;342039;28;82473;-93
2021/12/09 00:25:11;;;;;;;;;;;4.90;99.90;5.40;98583.00;;;;340327;28;96555;-93
2021/12/09 00:25:22;;;;;;;;;;;4.90;99.90;5.40;98586.00;;;;342047;28;82407;-92
2021/12/09 00:25:35;;;;;;;;;;;4.90;99.90;5.40;98584.00;;;;339881;28;95499;-93
2021/12/09 00:25:46;;;;;;;;;;;4.90;99.90;5.40;98587.00;;;;342071;28;82590;-93
2021/12/09 00:25:58;;;;;;;;;;;4.90;99.90;5.40;98581.00;;;;339872;28;95995;-93
2021/12/09 00:26:10;;;;;;;;;;;4.80;99.90;5.40;98583.00;;;;342151;28;82262;-94
2021/12/09 00:26:22;;;;;;;;;;;4.80;99.90;5.30;98591.00;;;;338533;28;96708;-92
2021/12/09 00:26:34;;;;;;;;;;;4.80;99.90;5.40;98589.00;;;;342072;28;83269;-93
2021/12/09 00:26:46;;;;;;;;;;;4.90;99.90;5.50;98588.00;;;;339903;28;96274;-92
2021/12/09 00:26:57;;;;;;;;;;;4.90;99.90;5.40;98593.00;;;;337819;28;83409;-93
2021/12/09 00:27:09;;;;;;;;;;;4.80;99.90;5.40;98590.00;;;;341404;28;94095;-92
2021/12/09 00:27:22;;;;;;;;;;;4.90;99.90;5.40;98587.00;;;;340702;28;83502;-93
2021/12/09 00:27:34;;;;;;;;;;;4.90;99.90;5.40;98587.00;;;;338558;28;95683;-95
2021/12/09 00:27:46;;;;;;;;;;;4.80;99.90;5.50;98594.00;;;;343146;28;83572;-94
2021/12/09 00:27:57;;;;;;;;;;;4.80;99.90;5.50;98597.00;;;;340076;28;95512;-95
2021/12/09 00:28:10;;;;;;;;;;;4.90;99.90;5.50;98592.00;;;;341909;28;83399;-94
2021/12/09 00:28:22;;;;;;;;;;;4.80;99.90;5.50;98593.00;;;;340987;28;95163;-93
2021/12/09 00:28:34;;;;;;;;;;;4.90;99.90;5.50;98592.00;;;;343463;28;83360;-94
2021/12/09 00:28:46;;;;;;;;;;;4.90;99.90;5.50;98599.00;;;;342440;28;97118;-93
2021/12/09 00:28:58;;;;;;;;;;;4.90;99.90;5.50;98584.00;;;;340285;28;83737;-94
2021/12/09 00:29:11;;;;;;;;;;;4.90;99.90;5.40;98594.00;;;;340981;28;94552;-93
2021/12/09 00:29:23;;;;;;;;;;;4.90;99.90;5.30;98595.00;;;;341959;28;82400;-95
2021/12/09 00:29:35;;;;;;;;;;;4.80;99.90;5.40;98600.00;;;;341221;28;97094;-94
2021/12/09 00:29:46;;;;;;;;;;;4.80;99.90;5.40;98588.00;;;;344941;28;83392;-92
2021/12/09 00:29:58;;;;;;;;;;;4.90;99.90;5.30;98595.00;;;;342642;28;95076;-94
2021/12/09 00:30:10;;;;;;;;;;;4.80;99.90;5.30;98594.00;;;;342091;28;83341;-94
2021/12/09 00:30:22;;;;;;;;;;;4.80;99.90;5.30;98593.00;;;;342505;28;96206;-92
2021/12/09 00:30:34;;;;;;;;;;;4.80;99.90;5.30;98592.00;;;;341984;28;83501;-94
2021/12/09 00:30:46;;;;;;;;;;;4.80;99.90;5.30;98599.00;;;;341159;28;96517;-93
2021/12/09 00:30:58;;;;;;;;;;;4.80;99.90;5.30;98591.00;;;;343156;28;83482;-94
2021/12/09 00:31:10;;;;;;;;;;;4.80;99.90;5.30;98600.00;;;;340969;28;94711;-93
2021/12/09 00:31:23;;;;;;;;;;;4.80;99.90;5.30;98603.00;;;;340938;28;83306;-92
2021/12/09 00:31:34;;;;;;;;;;;4.80;99.90;5.30;98595.00;;;;341357;28;96545;-94
2021/12/09 00:31:48;;;;;;;;;;;4.80;99.90;5.30;98593.00;;;;341030;28;82534;-94
2021/12/09 00:31:59;;;;;;;;;;;4.80;99.90;5.30;98595.00;;;;341854;28;96655;-94
2021/12/09 00:32:11;;;;;;;;;;;4.80;99.90;5.30;98598.00;;;;345127;28;82366;-93
2021/12/09 00:32:23;;;;;;;;;;;4.80;99.90;5.30;98601.00;;;;340015;28;97424;-93
2021/12/09 00:32:35;;;;;;;;;;;4.70;99.90;5.30;98602.00;;;;341347;28;82536;-93
2021/12/09 00:32:47;;;;;;;;;;;4.80;99.90;5.30;98611.00;;;;340388;28;96348;-95
2021/12/09 00:32:59;;;;;;;;;;;4.80;99.90;5.30;98599.00;;;;343822;28;83400;-93
2021/12/09 00:33:11;;;;;;;;;;;4.80;99.90;5.30;98598.00;;;;341723;28;95652;-93
2021/12/09 00:33:23;;;;;;;;;;;4.70;99.90;5.30;98600.00;;;;341002;28;83348;-93
2021/12/09 00:33:41;;;;;;;;;;;4.70;99.90;5.30;98604.00;;;;341172;28;95200;-93
2021/12/09 00:33:55;;;;;;;;;;;4.80;99.90;5.20;98602.00;;;;339792;28;82535;-94
2021/12/09 00:34:07;;;;;;;;;;;4.70;99.90;5.30;98612.00;;;;339814;28;95618;-94
2021/12/09 00:34:20;;;;;;;;;;;4.70;99.90;5.30;98595.00;;;;342462;28;83324;-93
2021/12/09 00:34:34;;;;;;;;;;;4.70;99.90;5.20;98602.00;;;;339176;28;96237;-94
2021/12/09 00:34:48;;;;;;;;;;;4.70;99.90;5.20;98597.00;;;;342419;28;83223;-93
2021/12/09 00:35:02;;;;;;;;;;;4.70;99.90;5.30;98604.00;;;;341812;28;92649;-93
2021/12/09 00:35:16;;;;;;;;;;;4.70;99.90;5.30;98596.00;;;;341200;28;82388;-93
2021/12/09 00:35:33;;;;;;;;;;;4.70;99.90;5.40;98602.00;;;;341611;28;95274;-93
2021/12/09 00:35:49;;;;;;;;;;;4.70;99.90;5.30;98604.00;;;;342355;28;83226;-93
2021/12/09 00:36:01;;;;;;;;;;;4.70;99.90;5.30;98607.00;;;;341453;28;96527;-93
2021/12/09 00:36:17;;;;;;;;;;;4.70;99.90;5.30;98600.00;;;;340839;28;83395;-93
2021/12/09 00:36:35;;;;;;;;;;;4.70;99.90;5.30;98598.00;;;;338776;28;96822;-93
2021/12/09 00:37:05;;;;;;;;;;;4.70;99.90;5.30;98602.00;;;;339460;28;82283;-93
2021/12/09 00:37:36;;;;;;;;;;;4.70;99.90;5.30;98607.00;;;;340644;28;83436;-93
2021/12/09 00:38:08;;;;;;;;;;;4.70;99.90;5.20;98605.00;;;;338596;28;95363;-93
2021/12/09 00:38:32;;;;;;;;;;;4.70;99.90;5.20;98611.00;;;;337981;28;83493;-93
2021/12/09 00:38:45;;;;;;;;;;;4.70;99.90;5.20;98605.00;;;;341280;28;95688;-94
2021/12/09 00:38:58;;;;;;;;;;;4.70;99.90;5.20;98594.00;;;;342090;28;82409;-94
2021/12/09 00:39:10;;;;;;;;;;;4.70;99.90;5.20;98599.00;;;;341280;28;95342;-94
2021/12/09 00:39:22;;;;;;;;;;;4.70;99.90;5.20;98607.00;;;;340720;28;83347;-95
2021/12/09 00:39:34;;;;;;;;;;;4.70;99.90;5.20;98599.00;;;;340916;28;96366;-96
2021/12/09 00:39:49;;;;;;;;;;;4.60;99.90;5.20;98600.00;;;;339152;28;83422;-95
2021/12/09 00:40:01;;;;;;;;;;;4.60;99.90;5.20;98602.00;;;;339685;28;97710;-93
2021/12/09 00:40:13;;;;;;;;;;;4.70;99.90;5.20;98602.00;;;;340259;28;82667;-93
2021/12/09 00:40:24;;;;;;;;;;;4.60;99.90;5.20;98604.00;;;;338475;28;95692;-92
2021/12/09 00:40:36;;;;;;;;;;;4.60;99.90;5.20;98589.00;;;;340946;28;83390;-94
2021/12/09 00:40:49;;;;;;;;;;;4.60;99.90;5.20;98591.00;;;;338530;28;96868;-94
2021/12/09 00:41:06;;;;;;;;;;;4.60;99.90;5.20;98591.00;;;;340734;28;83150;-93
2021/12/09 00:41:18;;;;;;;;;;;4.70;99.90;5.20;98590.00;;;;340035;28;96195;-94
2021/12/09 00:41:29;;;;;;;;;;;4.70;99.90;5.10;98594.00;;;;339243;28;83483;-94
2021/12/09 00:41:41;;;;;;;;;;;4.70;99.90;5.20;98585.00;;;;339878;28;96679;-94
2021/12/09 00:41:53;;;;;;;;;;;4.60;99.90;5.20;98587.00;;;;340638;28;83233;-93
2021/12/09 00:42:05;;;;;;;;;;;4.60;99.90;5.20;98593.00;;;;339784;28;97831;-94
2021/12/09 00:42:18;;;;;;;;;;;4.70;99.90;5.20;98587.00;;;;339179;28;83449;-94
2021/12/09 00:42:30;;;;;;;;;;;4.60;99.90;5.20;98589.00;;;;338501;28;95521;-93
2021/12/09 00:42:42;;;;;;;;;;;4.60;99.90;5.10;98590.00;;;;341348;28;82654;-94
2021/12/09 00:42:54;;;;;;;;;;;4.60;99.90;5.10;98593.00;;;;339644;28;96319;-94
2021/12/09 00:43:06;;;;;;;;;;;4.60;99.90;5.10;98588.00;;;;343287;28;82292;-94
2021/12/09 00:43:20;;;;;;;;;;;4.60;99.90;5.10;98583.00;;;;339984;28;95311;-94
2021/12/09 00:43:31;;;;;;;;;;;4.60;99.90;5.20;98589.00;;;;340626;28;82534;-94
2021/12/09 00:43:43;;;;;;;;;;;4.60;99.90;5.20;98580.00;;;;340458;28;95405;-94
2021/12/09 00:43:55;;;;;;;;;;;4.60;99.90;5.20;98582.00;;;;339345;28;82402;-94
2021/12/09 00:44:09;;;;;;;;;;;4.60;99.90;5.20;98586.00;;;;338452;28;97619;-94
2021/12/09 00:44:21;;;;;;;;;;;4.60;99.90;5.20;98582.00;;;;340755;28;83357;-93
2021/12/09 00:44:32;;;;;;;;;;;4.60;99.90;5.20;98584.00;;;;341105;28;96406;-94
2021/12/09 00:44:44;;;;;;;;;;;4.60;99.90;5.10;98582.00;;;;339409;28;82420;-93
2021/12/09 00:44:56;;;;;;;;;;;4.60;99.90;5.10;98585.00;;;;342537;28;95596;-94
2021/12/09 00:45:08;;;;;;;;;;;4.60;99.90;5.10;98582.00;;;;341969;28;83574;-93
2021/12/09 00:45:21;;;;;;;;;;;4.60;99.90;5.10;98584.00;;;;341122;28;97104;-95
2021/12/09 00:45:33;;;;;;;;;;;4.60;99.90;5.10;98592.00;;;;343172;28;83373;-94
2021/12/09 00:45:45;;;;;;;;;;;4.60;99.90;5.10;98591.00;;;;342500;28;95901;-93
2021/12/09 00:45:57;;;;;;;;;;;4.60;99.90;5.10;98593.00;;;;342162;28;83402;-95
2021/12/09 00:46:09;;;;;;;;;;;4.60;99.90;5.10;98587.00;;;;340044;28;95829;-93
2021/12/09 00:46:21;;;;;;;;;;;4.60;99.90;5.10;98589.00;;;;342497;28;82532;-94
2021/12/09 00:46:33;;;;;;;;;;;4.60;99.90;5.10;98582.00;;;;341681;28;95190;-93
2021/12/09 00:46:44;;;;;;;;;;;4.60;99.90;5.10;98592.00;;;;342700;28;82627;-94
2021/12/09 00:46:56;;;;;;;;;;;4.60;99.90;5.10;98595.00;;;;341704;28;96299;-94
2021/12/09 00:47:08;;;;;;;;;;;4.60;99.90;5.20;98594.00;;;;339861;28;82493;-93
2021/12/09 00:47:21;;;;;;;;;;;4.60;99.90;5.10;98589.00;;;;341562;28;95916;-94
2021/12/09 00:47:32;;;;;;;;;;;4.60;99.90;5.20;98596.00;;;;340994;28;83436;-92
2021/12/09 00:47:44;;;;;;;;;;;4.60;99.90;5.20;98607.00;;;;340316;28;95523;-93
2021/12/09 00:47:56;;;;;;;;;;;4.60;99.90;5.20;98598.00;;;;342240;28;82423;-94
2021/12/09 00:48:08;;;;;;;;;;;4.60;99.90;5.20;98595.00;;;;338921;28;96639;-94
2021/12/09 00:48:20;;;;;;;;;;;4.60;99.90;5.20;98598.00;;;;341070;28;83405;-94
2021/12/09 00:48:32;;;;;;;;;;;4.60;99.90;5.20;98601.00;;;;340112;28;94535;-93
2021/12/09 00:48:44;;;;;;;;;;;4.60;99.90;5.10;98590.00;;;;340612;28;82578;-93
2021/12/09 00:48:56;;;;;;;;;;;4.60;99.90;5.10;98585.00;;;;340320;28;92758;-94
2021/12/09 00:49:08;;;;;;;;;;;4.60;99.90;5.10;98592.00;;;;342125;28;82319;-93
2021/12/09 00:49:20;;;;;;;;;;;4.60;99.90;5.10;98592.00;;;;341304;28;96422;-94
2021/12/09 00:49:32;;;;;;;;;;;4.60;99.90;5.10;98593.00;;;;340974;28;82534;-94
2021/12/09 00:49:44;;;;;;;;;;;4.60;99.90;5.20;98586.00;;;;338931;28;95411;-94
2021/12/09 00:49:56;;;;;;;;;;;4.60;99.90;5.10;98591.00;;;;341156;28;83334;-94
2021/12/09 00:50:08;;;;;;;;;;;4.60;99.90;5.20;98591.00;;;;340334;28;96320;-95
2021/12/09 00:50:21;;;;;;;;;;;4.60;99.90;5.20;98594.00;;;;340446;28;82419;-93
2021/12/09 00:50:32;;;;;;;;;;;4.60;99.90;5.20;98596.00;;;;339826;28;97225;-93
2021/12/09 00:50:44;;;;;;;;;;;4.60;99.90;5.20;98593.00;;;;340624;28;83322;-93
2021/12/09 00:50:56;;;;;;;;;;;4.60;99.90;5.20;98597.00;;;;339541;28;95688;-95
2021/12/09 00:51:08;;;;;;;;;;;4.60;99.90;5.20;98593.00;;;;338111;28;82368;-95
2021/12/09 00:51:20;;;;;;;;;;;4.60;99.90;5.20;98598.00;;;;339855;28;96290;-95
2021/12/09 00:51:32;;;;;;;;;;;4.60;99.90;5.20;98595.00;;;;339264;28;83233;-95
2021/12/09 00:51:44;;;;;;;;;;;4.60;99.90;5.10;98600.00;;;;339492;28;97005;-93
2021/12/09 00:51:59;;;;;;;;;;;4.60;99.90;5.10;98596.00;;;;340095;28;83321;-93
2021/12/09 00:52:12;;;;;;;;;;;4.60;99.90;5.20;98601.00;;;;339747;28;96398;-94
2021/12/09 00:52:24;;;;;;;;;;;4.60;99.90;5.20;98601.00;;;;340565;28;82504;-95
2021/12/09 00:52:36;;;;;;;;;;;4.60;99.90;5.20;98602.00;;;;341077;28;95740;-93
2021/12/09 00:52:48;;;;;;;;;;;4.60;99.90;5.30;98595.00;;;;341891;28;83405;-95
2021/12/09 00:53:00;;;;;;;;;;;4.60;99.90;5.20;98597.00;;;;339484;28;94087;-94
2021/12/09 00:53:12;;;;;;;;;;;4.60;99.90;5.30;98599.00;;;;340676;28;83205;-94
2021/12/09 00:53:23;;;;;;;;;;;4.60;99.90;5.30;98603.00;;;;340989;28;95703;-94
2021/12/09 00:53:35;;;;;;;;;;;4.60;99.90;5.30;98595.00;;;;339354;28;83488;-94
2021/12/09 00:53:47;;;;;;;;;;;4.60;99.90;5.20;98598.00;;;;341014;28;95859;-95
2021/12/09 00:53:59;;;;;;;;;;;4.60;99.90;5.20;98600.00;;;;341954;28;82276;-93
2021/12/09 00:54:11;;;;;;;;;;;4.60;99.90;5.20;98598.00;;;;341081;28;96947;-95
2021/12/09 00:54:23;;;;;;;;;;;4.60;99.90;5.30;98602.00;;;;343301;28;83271;-94
2021/12/09 00:54:35;;;;;;;;;;;4.60;99.90;5.30;98601.00;;;;341076;28;96391;-95
2021/12/09 00:54:47;;;;;;;;;;;4.60;99.90;5.30;98600.00;;;;340603;28;83328;-94
2021/12/09 00:54:59;;;;;;;;;;;4.60;99.90;5.20;98602.00;;;;340664;28;95229;-94
2021/12/09 00:55:11;;;;;;;;;;;4.60;99.90;5.20;98602.00;;;;341099;28;83483;-93
2021/12/09 00:55:23;;;;;;;;;;;4.60;99.90;5.20;98604.00;;;;339831;28;95461;-94
2021/12/09 00:55:35;;;;;;;;;;;4.60;99.90;5.20;98597.00;;;;340383;28;82406;-95
2021/12/09 00:55:47;;;;;;;;;;;4.60;99.90;5.30;98603.00;;;;338587;28;96791;-94
2021/12/09 00:55:58;;;;;;;;;;;4.60;99.90;5.20;98608.00;;;;341711;28;82439;-93
2021/12/09 00:56:11;;;;;;;;;;;4.60;99.90;5.20;98594.00;;;;341142;28;96420;-94
2021/12/09 00:56:22;;;;;;;;;;;4.60;99.90;5.30;98600.00;;;;340621;28;83466;-94
2021/12/09 00:56:34;;;;;;;;;;;4.60;99.90;5.30;98596.00;;;;339971;28;95470;-94
2021/12/09 00:56:46;;;;;;;;;;;4.60;99.90;5.20;98602.00;;;;341774;28;82593;-94
2021/12/09 00:56:58;;;;;;;;;;;4.60;99.90;5.30;98600.00;;;;341176;28;96801;-93
2021/12/09 00:57:10;;;;;;;;;;;4.60;99.90;5.30;98595.00;;;;340740;28;82484;-93
2021/12/09 00:57:22;;;;;;;;;;;4.60;99.90;5.30;98600.00;;;;341272;28;96281;-95
2021/12/09 00:57:34;;;;;;;;;;;4.60;99.90;5.30;98596.00;;;;341956;28;83398;-96
2021/12/09 00:57:46;;;;;;;;;;;4.60;99.90;5.20;98598.00;;;;337990;28;95324;-94
2021/12/09 00:57:58;;;;;;;;;;;4.70;99.90;5.20;98598.00;;;;337937;28;82455;-94
2021/12/09 00:58:09;;;;;;;;;;;4.60;99.90;5.30;98583.00;;;;339556;28;97523;-95
2021/12/09 00:58:21;;;;;;;;;;;4.70;99.90;5.30;98597.00;;;;341782;28;83419;-94
2021/12/09 00:58:33;;;;;;;;;;;4.70;99.90;5.30;98595.00;;;;340978;28;96618;-93
2021/12/09 00:58:45;;;;;;;;;;;4.70;99.90;5.30;98601.00;;;;340624;28;83416;-93
2021/12/09 00:58:57;;;;;;;;;;;4.70;99.90;5.30;98591.00;;;;338583;28;93015;-94
2021/12/09 00:59:09;;;;;;;;;;;4.70;99.90;5.30;98592.00;;;;340612;28;82420;-95
2021/12/09 00:59:21;;;;;;;;;;;4.70;99.90;5.30;98590.00;;;;340950;28;95484;-95
2021/12/09 00:59:33;;;;;;;;;;;4.70;99.90;5.30;98591.00;;;;341881;28;83436;-95
2021/12/09 00:59:44;;;;;;;;;;;4.70;99.90;5.40;98594.00;;;;341156;28;95094;-95
2021/12/09 00:59:58;;;;;;;;;;;4.70;99.90;5.40;98599.00;;;;341950;28;83446;-94
2021/12/09 01:00:16;;;;;;;;;;;4.70;99.90;5.40;98599.00;;;;336976;28;96410;-94
2021/12/09 01:00:31;;;;;;;;;;;4.70;99.90;5.30;98608.00;;;;340660;28;82451;-94
2021/12/09 01:00:43;;;;;;;;;;;4.70;99.90;5.30;98599.00;;;;340624;28;95854;-96
2021/12/09 01:00:55;;;;;;;;;;;4.70;99.90;5.40;98606.00;;;;339865;28;82643;-93
2021/12/09 01:01:07;;;;;;;;;;;4.70;99.90;5.30;98593.00;;;;341026;28;96724;-94
2021/12/09 01:01:19;;;;;;;;;;;4.70;99.90;5.30;98594.00;;;;340634;28;82519;-94
2021/12/09 01:01:33;;;;;;;;;;;4.70;99.90;5.40;98600.00;;;;341063;28;96661;-93
2021/12/09 01:01:45;;;;;;;;;;;4.70;99.90;5.30;98599.00;;;;342986;28;83592;-95
2021/12/09 01:01:57;;;;;;;;;;;4.70;99.90;5.30;98602.00;;;;339663;28;95913;-95
2021/12/09 01:02:10;;;;;;;;;;;4.70;99.90;5.30;98592.00;;;;343152;28;83201;-94
2021/12/09 01:02:22;;;;;;;;;;;4.70;99.90;5.30;98596.00;;;;341142;28;96784;-93
2021/12/09 01:02:33;;;;;;;;;;;4.70;99.90;5.20;98600.00;;;;343370;28;83267;-95
2021/12/09 01:02:45;;;;;;;;;;;4.70;99.90;5.30;98601.00;;;;341128;28;96802;-93
2021/12/09 01:02:58;;;;;;;;;;;4.70;99.90;5.30;98593.00;;;;340361;28;83446;-95
2021/12/09 01:03:10;;;;;;;;;;;4.70;99.90;5.30;98593.00;;;;342366;28;95546;-96
2021/12/09 01:03:22;;;;;;;;;;;4.70;99.90;5.30;98600.00;;;;343308;28;82461;-94
2021/12/09 01:03:35;;;;;;;;;;;4.70;99.90;5.20;98604.00;;;;341209;28;95847;-95
2021/12/09 01:03:46;;;;;;;;;;;4.70;99.90;5.30;98590.00;;;;341202;28;83404;-94
2021/12/09 01:03:58;;;;;;;;;;;4.70;99.90;5.30;98593.00;;;;340878;28;95539;-95
2021/12/09 01:04:10;;;;;;;;;;;4.70;99.90;5.30;98593.00;;;;340384;28;83515;-94
2021/12/09 01:04:22;;;;;;;;;;;4.70;99.90;5.40;98597.00;;;;341141;28;95045;-95
2021/12/09 01:04:33;;;;;;;;;;;4.70;99.90;5.40;98596.00;;;;340675;28;82427;-94
2021/12/09 01:04:46;;;;;;;;;;;4.70;99.90;5.40;98597.00;;;;341235;28;96268;-93